Skip to main content

NOAA/GLERL Met Station at Chicago, IL

Previous 5 days (top of hour only)
See also Previous 3 Hours (2 minute increments)
Jump down to Data
Switch to [English][Metric]
Zoom: Click and drag, Pan: shift-click and drag, Unzoom: double-click, Unzoom All




Note: Speed = mean wind during 2-minute period at top of hour,
Gust = max wind during 2-minute period at top of hour,
Peak = max wind during entire hour.
• See also 5-day windrose plot


NOAA/GLERL Met Station at Chicago, IL

Previous 5 days (top of hour only)
See also Previous 3 Hours (2 minute increments)
Jump up to Graphs
Switch to [English][Metric]
                  Wind  Wind  Wind   Air   Dew   Rel
                   Spd   Gst   Dir  Temp    Pt   Hum
YYYY-MM-DD   CDT   kts   kts   deg     F     F     %
2019-08-25 00:00 -99.0 -99.0   -99   0.0   0.0   0.0
2019-08-24 15:00  10.5  12.4    42  68.7  53.5  57.9
2019-08-24 14:00  12.8  14.4    66  69.1  51.6  53.3
2019-08-24 13:00  11.5  12.4    88  68.4  50.8  53.0
2019-08-24 12:00  14.4  15.7    90  68.2  52.3  56.3
2019-08-24 11:00  17.1  18.7    95  68.0  53.6  59.6
2019-08-24 10:00  18.9  20.8   103  68.0  53.1  58.5
2019-08-24 09:00  19.1  21.0   114  68.2  52.8  57.4
2019-08-24 08:00  18.1  20.4   112  68.0  54.5  61.5
2019-08-24 07:00  20.6  21.8   132  68.2  58.3  70.2
2019-08-24 06:00  17.7  18.9   128  67.8  60.3  76.4
2019-08-24 05:00  19.2  21.4   133  68.5  60.0  73.9
2019-08-24 04:00  18.5  19.4   119  69.4  56.2  62.4
2019-08-24 03:00  14.0  15.9   113  70.9  54.5  55.7
2019-08-24 02:00  14.8  15.7    82  71.1  57.4  61.6
2019-08-24 01:00  14.0  17.3    68  70.9  58.9  65.3
2019-08-24 00:00  14.6  15.6    48  70.3  59.5  68.2
2019-08-23 23:00  13.6  15.0    48  70.0  59.0  67.6
2019-08-23 22:00  12.4  14.0    48  70.0  59.2  68.3
2019-08-23 21:00  14.6  16.3    46  69.4  58.5  67.7
2019-08-23 20:00  14.0  16.7    24  68.7  57.8  67.8
2019-08-23 19:00  15.7  19.6    14  68.4  54.4  60.5
2019-08-23 18:00  15.2  16.9    20  68.5  56.1  64.1
2019-08-23 17:00  15.0  17.1    18  68.4  56.4  65.2
2019-08-23 16:00  13.8  15.2    26  68.7  55.1  61.4
2019-08-23 15:00  14.4  15.9    45  68.7  54.8  60.8
2019-08-23 14:00  14.2  16.3    49  68.9  56.5  64.3
2019-08-23 13:00  12.6  14.4    50  68.5  57.1  66.4
2019-08-23 12:00  13.4  15.0    38  68.2  55.7  63.9
2019-08-23 11:00  11.1  12.2    42  68.5  55.3  62.2
2019-08-23 10:00  13.0  14.6    63  68.9  51.4  53.1
2019-08-23 09:00  13.4  14.8    65  68.5  56.6  65.2
2019-08-23 08:00  14.0  15.7    65  68.7  56.8  65.2
2019-08-23 07:00  14.4  15.7    65  68.7  55.4  62.1
2019-08-23 06:00  16.5  17.5    48  68.5  55.9  63.6
2019-08-23 05:00  16.9  17.7    50  68.7  58.0  68.2
2019-08-23 04:00  11.3  13.2    56  70.2  56.9  62.3
2019-08-23 03:00  12.6  14.2    62  70.5  54.5  56.3
2019-08-23 02:00  15.7  17.7    65  71.1  55.3  56.9
2019-08-23 01:00  15.4  19.2    59  71.6  57.2  59.9
2019-08-23 00:00  16.7  18.1    43  71.4  57.0  59.9
2019-08-22 23:00  17.1  18.7    47  71.4  56.5  58.8
2019-08-22 22:00  17.9  20.2    32  71.4  59.1  64.7
2019-08-22 21:00  18.7  21.0    31  71.2  57.6  61.5
2019-08-22 20:00  17.5  19.2    33  71.2  57.4  61.1
2019-08-22 19:00  16.5  18.7    32  71.8  56.0  57.1
2019-08-22 18:00  15.9  17.5    24  71.6  57.3  60.2
2019-08-22 17:00  17.5  18.1    33  72.0  56.4  57.6
2019-08-22 16:00  18.1  19.1    34  71.8  57.1  59.3
2019-08-22 15:00  18.3  19.8    35  71.2  59.6  66.2
2019-08-22 14:00  17.3  19.1    38  70.9  61.2  71.0
2019-08-22 13:00  17.9  20.6    36  70.9  64.1  78.8
2019-08-22 12:00  13.0  14.2    40  71.8  63.2  74.0
2019-08-22 11:00  12.2  13.4    54  72.3  63.0  72.1
2019-08-22 10:00  12.6  13.6    87  73.2  60.0  62.8
2019-08-22 09:00  11.1  12.2    36  73.9  66.6  77.4
2019-08-22 08:00   6.0   6.6    27  73.8  66.7  78.2
2019-08-22 07:00   6.6   7.4    30  73.6  67.0  79.6
2019-08-22 06:00   5.4   6.2    61  73.8  65.6  75.3
2019-08-22 05:00   5.2   5.6    47  73.6  66.0  76.9
2019-08-22 04:00   7.0   7.8    28  74.3  65.5  73.6
2019-08-22 03:00   7.0   7.6    15  74.1  67.1  78.4
2019-08-22 02:00   8.4   8.7   334  73.8  69.4  86.1
2019-08-22 01:00   4.7   5.4   357  74.5  70.7  87.8
2019-08-22 00:00   4.5   5.1     7  74.5  71.4  89.8
2019-08-21 23:00   6.8   7.4    28  74.8  71.0  87.7
2019-08-21 22:00   7.4   7.6    16  75.2  71.3  87.5
2019-08-21 21:00  10.5  12.2    19  75.9  71.0  84.5
2019-08-21 20:00  13.4  14.8   345  75.9  74.0  93.6
2019-08-21 19:00   7.0   7.8   300  76.3  73.3  90.4
2019-08-21 18:00  10.9  11.7   321  77.2  73.2  87.2
2019-08-21 17:00   9.9  11.1   250  79.9  72.2  77.0
2019-08-21 16:00  20.0  23.9   272  81.5  71.0  70.1
2019-08-21 15:00  14.4  17.3   258  82.8  69.7  64.1
2019-08-21 14:00  14.0  17.1   236  82.8  70.9  66.8
2019-08-21 13:00  13.6  15.7   241  82.4  70.8  67.4
2019-08-21 12:00   3.9   6.4   169  81.7  72.5  73.2
2019-08-21 10:00   5.1   5.6   264  77.0  71.1  81.8
2019-08-21 09:00   2.7   3.3   268  75.0  71.0  87.0
2019-08-21 08:00   7.4   8.2   246  73.4  69.9  88.5
2019-08-21 07:00   7.8   8.7   261  72.7  68.9  87.7
2019-08-21 06:00   8.0   8.7   277  70.9  68.7  92.7
2019-08-21 05:00   3.1   3.5   262  73.6  67.5  80.9
2019-08-21 04:00   3.5   4.3   286  73.0  67.8  83.4
2019-08-21 03:00   4.7   4.9   276  72.7  69.0  88.1
2019-08-21 02:00   7.6   8.0   291  73.4  69.3  86.8
2019-08-21 01:00   7.4   8.0   304  73.4  69.2  86.5
2019-08-21 00:00   7.8   8.6   282  73.2  71.1  93.0
2019-08-20 23:00   9.3   9.9   275  73.9  71.5  92.1
2019-08-20 22:00   5.2   6.4   213  74.7  71.0  88.2
2019-08-20 21:00   1.4   1.9   263  75.0  71.7  89.1
2019-08-20 20:00   4.7   5.2   104  74.3  72.9  95.4
2019-08-20 19:00   8.0   8.9   142  74.7  72.9  94.3
2019-08-20 18:00   1.9   2.9   193  75.4  71.7  88.1
2019-08-20 17:00   5.1   5.6    44  74.3  71.1  89.6
2019-08-20 16:00  12.1  13.0    52  73.4  73.4 100.1
2019-08-20 15:00   6.8   8.0    71  73.0  72.8  99.1
2019-08-20 14:00   2.1   2.5   208  73.4  72.4  96.5
2019-08-20 13:00  16.7  17.5   213  73.4  72.5  97.1
2019-08-20 12:00   6.6   8.4   164  77.7  76.9  97.3
2019-08-20 11:00   7.8   8.6   194  78.6  76.5  93.0
2019-08-20 10:00   8.7   8.9   195  78.3  75.8  91.9
2019-08-20 09:00   7.6   7.8   273  78.4  75.5  90.6
2019-08-20 08:00   8.4   8.7   173  76.3  75.1  96.2
2019-08-20 07:00   2.9   3.7   159  76.3  75.3  96.7
2019-08-20 06:00   1.9   2.1     1  75.4  75.5 100.3
2019-08-20 05:00   4.1   4.5   327  77.7  75.1  91.6
2019-08-20 04:00   8.0   8.4   199  78.1  74.8  89.4
2019-08-20 03:00   7.8   8.2   199  77.5  75.6  93.7
2019-08-20 02:00   8.4   8.6   186  76.8  76.1  97.6
2019-08-20 01:00   2.1   2.5   150  76.1  76.2 100.4
2019-08-19 23:00   3.1   4.1    90  76.3  76.4 100.4
2019-08-19 22:00   4.5   4.9    73  76.3  76.0  98.9
2019-08-19 21:00   5.8   6.0    30  76.3  75.5  97.5
2019-08-19 20:00   3.5   4.1     7  76.3  75.2  96.3
2019-08-19 19:00   2.3   2.9   353  77.2  74.9  92.6